createdAt,value
2022-08-27T00:04:52.992Z,19.10
2022-08-27T00:09:58.846Z,19.10
2022-08-27T00:15:04.081Z,19.00
2022-08-27T00:20:10.416Z,18.90
2022-08-27T00:25:17.144Z,18.90
2022-08-27T00:30:25.059Z,18.90
2022-08-27T00:35:29.372Z,18.90
2022-08-27T00:40:36.156Z,18.90
2022-08-27T00:45:46.423Z,18.90
2022-08-27T00:50:55.380Z,18.90
2022-08-27T00:56:09.746Z,18.90
2022-08-27T01:01:19.761Z,19.00
2022-08-27T01:06:29.675Z,18.90
2022-08-27T01:11:35.759Z,18.80
2022-08-27T01:16:46.785Z,18.70
2022-08-27T01:22:03.233Z,18.60
2022-08-27T01:27:14.009Z,18.60
2022-08-27T01:32:25.456Z,18.40
2022-08-27T01:37:29.996Z,18.30
2022-08-27T01:42:38.911Z,18.20
2022-08-27T01:47:44.566Z,18.20
2022-08-27T01:52:49.372Z,18.40
2022-08-27T01:57:57.054Z,18.50
2022-08-27T02:03:02.371Z,18.70
2022-08-27T02:08:06.725Z,18.90
2022-08-27T02:13:13.392Z,18.90
2022-08-27T02:18:18.278Z,19.00
2022-08-27T02:23:23.116Z,19.10
2022-08-27T02:28:29.314Z,19.10
2022-08-27T02:33:34.078Z,19.10
2022-08-27T02:38:38.689Z,19.10
2022-08-27T02:43:46.824Z,19.10
2022-08-27T02:48:54.232Z,19.20
2022-08-27T02:54:02.055Z,19.10
2022-08-27T02:59:08.075Z,19.00
2022-08-27T03:04:12.804Z,18.90
2022-08-27T03:09:17.103Z,18.90
2022-08-27T03:14:22.945Z,18.70
2022-08-27T03:19:27.337Z,18.40
2022-08-27T03:24:32.230Z,18.30
2022-08-27T03:29:38.722Z,18.30
2022-08-27T03:34:43.264Z,18.40
2022-08-27T03:39:47.454Z,18.60
2022-08-27T03:44:53.235Z,18.70
2022-08-27T03:49:57.622Z,18.80
2022-08-27T03:55:02.055Z,18.80
2022-08-27T04:00:12.729Z,18.90
2022-08-27T04:05:17.145Z,18.90
2022-08-27T04:10:22.137Z,18.80
2022-08-27T04:15:27.939Z,18.80
2022-08-27T04:20:35.357Z,18.80
2022-08-27T04:25:41.252Z,18.80
2022-08-27T04:30:48.251Z,18.90
2022-08-27T04:35:59.906Z,18.90
2022-08-27T04:41:21.362Z,18.90
2022-08-27T04:46:29.940Z,19.00
2022-08-27T04:51:34.854Z,19.00
2022-08-27T04:56:40.344Z,18.90
2022-08-27T05:01:46.162Z,18.90
2022-08-27T05:06:50.699Z,19.00
2022-08-27T05:11:58.874Z,19.00
2022-08-27T05:17:04.721Z,19.00
2022-08-27T05:22:09.136Z,19.00
2022-08-27T05:27:13.780Z,19.10
2022-08-27T05:32:19.446Z,19.10
2022-08-27T05:37:23.794Z,19.10
2022-08-27T05:42:30.080Z,19.20
2022-08-27T05:47:37.503Z,19.30
2022-08-27T05:52:48.836Z,19.30
2022-08-27T05:57:53.298Z,19.20
2022-08-27T06:02:59.552Z,19.30
2022-08-27T06:08:04.435Z,19.50
2022-08-27T06:13:08.687Z,19.60
2022-08-27T06:18:14.869Z,19.80
2022-08-27T06:23:19.213Z,20.10
2022-08-27T06:28:32.791Z,20.50
2022-08-27T06:33:39.630Z,20.70
2022-08-27T06:38:44.145Z,20.80
2022-08-27T06:43:49.148Z,21.10
2022-08-27T06:49:01.245Z,21.20
2022-08-27T06:54:08.961Z,21.20
2022-08-27T06:59:16.780Z,21.00
2022-08-27T07:04:32.623Z,20.80
2022-08-27T07:09:37.349Z,20.70
2022-08-27T07:14:43.784Z,20.80
2022-08-27T07:19:49.844Z,20.80
2022-08-27T07:24:54.259Z,20.90
2022-08-27T07:29:59.984Z,21.10
2022-08-27T07:35:09.812Z,21.30
2022-08-27T07:40:17.174Z,21.50
2022-08-27T07:45:22.099Z,21.80
2022-08-27T07:50:28.048Z,21.70
2022-08-27T07:55:32.425Z,21.50
2022-08-27T08:00:37.112Z,21.30
2022-08-27T08:05:45.237Z,21.10
2022-08-27T08:10:49.957Z,21.10
2022-08-27T08:15:54.241Z,21.10
2022-08-27T08:21:03.494Z,21.20
2022-08-27T08:26:09.743Z,21.40
2022-08-27T08:31:14.286Z,22.40
2022-08-27T08:36:20.768Z,23.50
2022-08-27T08:41:41.387Z,24.40
2022-08-27T08:46:55.296Z,26.40
2022-08-27T08:52:26.929Z,26.60
2022-08-27T08:57:44.860Z,28.10
2022-08-27T09:02:55.790Z,27.90
2022-08-27T09:08:32.326Z,26.90
2022-08-27T09:13:44.704Z,28.10
2022-08-27T09:18:52.334Z,31.20
2022-08-27T09:24:09.490Z,33.10
2022-08-27T09:29:20.048Z,32.60
2022-08-27T09:34:27.266Z,32.90
2022-08-27T09:39:45.835Z,33.90
2022-08-27T09:44:53.553Z,33.70
2022-08-27T09:50:53.586Z,32.60
2022-08-27T09:56:23.208Z,32.50
2022-08-27T10:01:32.363Z,32.60
2022-08-27T10:06:38.481Z,32.60
2022-08-27T10:12:08.154Z,32.70
2022-08-27T10:18:37.065Z,33.70
2022-08-27T10:24:31.527Z,36.20
2022-08-27T10:30:38.729Z,39.00
2022-08-27T10:37:17.171Z,37.50
2022-08-27T10:43:12.234Z,39.40
2022-08-27T10:48:47.241Z,41.60
2022-08-27T11:01:45.563Z,41.70
2022-08-27T11:29:15.051Z,43.00
2022-08-27T11:35:51.431Z,43.90
2022-08-27T11:43:15.593Z,43.30
2022-08-27T12:12:14.385Z,45.60
2022-08-27T12:18:09.676Z,46.20
2022-08-27T12:23:40.948Z,46.60
2022-08-27T12:28:48.350Z,45.90
2022-08-27T12:33:55.674Z,47.20
2022-08-27T12:39:03.672Z,46.00
2022-08-27T12:44:13.155Z,46.10
2022-08-27T12:49:39.097Z,43.60
2022-08-27T12:55:00.298Z,44.20
2022-08-27T13:00:14.458Z,43.60
2022-08-27T13:05:28.588Z,45.80
2022-08-27T13:10:37.929Z,46.90
2022-08-27T13:23:40.660Z,45.70
2022-08-27T13:29:30.192Z,47.00
2022-08-27T13:34:54.576Z,42.90
2022-08-27T13:40:00.336Z,39.60
2022-08-27T13:45:07.815Z,38.10
2022-08-27T13:50:22.658Z,37.20
2022-08-27T13:55:33.642Z,35.50
2022-08-27T14:00:38.548Z,35.00
2022-08-27T14:06:11.986Z,38.60
2022-08-27T14:11:29.378Z,37.70
2022-08-27T14:16:36.877Z,34.80
2022-08-27T14:21:43.731Z,33.20
2022-08-27T14:26:53.576Z,32.00
2022-08-27T14:31:57.943Z,33.50
2022-08-27T14:37:03.872Z,35.10
2022-08-27T14:42:10.361Z,35.10
2022-08-27T14:47:17.247Z,36.10
2022-08-27T14:52:24.828Z,33.70
2022-08-27T14:57:30.647Z,31.50
2022-08-27T15:02:36.396Z,30.10
2022-08-27T15:07:40.981Z,28.80
2022-08-27T15:12:55.171Z,28.20
2022-08-27T15:18:03.600Z,28.20
2022-08-27T15:23:08.048Z,27.60
2022-08-27T15:28:14.423Z,27.00
2022-08-27T15:33:20.911Z,26.60
2022-08-27T15:38:25.278Z,26.30
2022-08-27T15:43:31.436Z,25.80
2022-08-27T15:48:36.280Z,25.20
2022-08-27T15:53:43.839Z,24.60
2022-08-27T15:58:49.748Z,24.60
2022-08-27T16:03:55.075Z,24.70
2022-08-27T16:08:59.540Z,24.50
2022-08-27T16:14:05.582Z,23.70
2022-08-27T16:19:13.640Z,23.00
2022-08-27T16:24:22.950Z,22.60
2022-08-27T16:29:28.543Z,22.50
2022-08-27T16:34:33.203Z,22.40
2022-08-27T16:39:40.656Z,22.70
2022-08-27T16:44:46.626Z,23.10
2022-08-27T16:50:08.156Z,23.50
2022-08-27T16:55:12.476Z,24.10
2022-08-27T17:00:19.208Z,24.80
2022-08-27T17:05:34.097Z,25.20
2022-08-27T17:10:46.328Z,25.20
2022-08-27T17:15:53.175Z,25.50
2022-08-27T17:21:00.644Z,25.50
2022-08-27T17:26:09.216Z,25.40
2022-08-27T17:31:27.944Z,25.00
2022-08-27T17:36:33.603Z,24.90
2022-08-27T17:41:42.899Z,24.50
2022-08-27T17:46:49.426Z,24.10
2022-08-27T17:52:00.882Z,23.80
2022-08-27T17:57:14.877Z,23.50
2022-08-27T18:02:25.580Z,23.20
2022-08-27T18:07:30.063Z,22.90
2022-08-27T18:12:35.053Z,22.70
2022-08-27T18:17:42.539Z,22.40
2022-08-27T18:22:49.107Z,22.30
2022-08-27T18:27:58.038Z,22.10
2022-08-27T18:33:03.887Z,21.80
2022-08-27T18:38:08.313Z,21.60
2022-08-27T18:43:14.384Z,21.50
2022-08-27T18:48:23.240Z,21.40
2022-08-27T18:53:30.951Z,21.40
2022-08-27T18:58:38.490Z,21.40
2022-08-27T19:03:48.679Z,21.30
2022-08-27T19:08:54.146Z,21.10
2022-08-27T19:13:59.141Z,20.80
2022-08-27T19:19:08.030Z,20.60
2022-08-27T19:24:12.681Z,20.50
2022-08-27T19:29:17.994Z,20.40
2022-08-27T19:34:25.621Z,20.40
2022-08-27T19:39:30.390Z,20.30
2022-08-27T19:44:36.053Z,20.20
2022-08-27T19:49:44.901Z,20.20
2022-08-27T19:55:10.203Z,20.10
2022-08-27T20:00:18.985Z,20.00
2022-08-27T20:05:25.038Z,19.90
2022-08-27T20:10:36.879Z,19.90
2022-08-27T20:15:42.095Z,19.80
2022-08-27T20:20:49.930Z,19.80
2022-08-27T20:25:57.837Z,19.80
2022-08-27T20:31:05.187Z,19.70
2022-08-27T20:36:12.996Z,19.70
2022-08-27T20:41:17.274Z,19.60
2022-08-27T20:46:25.730Z,19.50
2022-08-27T20:51:31.883Z,19.50
2022-08-27T20:56:56.412Z,19.50
2022-08-27T21:02:07.016Z,19.40
2022-08-27T21:07:12.910Z,19.30
2022-08-27T21:12:22.824Z,19.10
2022-08-27T21:17:29.588Z,19.10
2022-08-27T21:22:36.668Z,18.90
2022-08-27T21:27:42.512Z,18.90
2022-08-27T21:32:46.916Z,18.90
2022-08-27T21:37:52.726Z,18.90
2022-08-27T21:42:58.516Z,18.80
2022-08-27T21:48:03.328Z,18.80
2022-08-27T21:53:09.609Z,18.60
2022-08-27T21:58:15.678Z,18.60
2022-08-27T22:03:23.196Z,18.60
2022-08-27T22:08:28.946Z,18.60
2022-08-27T22:13:34.750Z,18.50
2022-08-27T22:18:39.176Z,18.40
2022-08-27T22:23:46.145Z,18.20
2022-08-27T22:28:50.714Z,18.10
2022-08-27T22:33:55.060Z,18.00
2022-08-27T22:39:03.485Z,18.00
2022-08-27T22:44:08.466Z,18.00
2022-08-27T22:49:12.927Z,17.90
2022-08-27T22:54:20.790Z,17.90
2022-08-27T22:59:25.479Z,17.90
2022-08-27T23:04:51.319Z,17.90
2022-08-27T23:09:56.902Z,17.90
2022-08-27T23:15:01.282Z,17.80
2022-08-27T23:20:08.374Z,17.70
2022-08-27T23:25:32.701Z,17.70
2022-08-27T23:30:37.878Z,17.60
2022-08-27T23:35:47.571Z,17.60
2022-08-27T23:40:53.480Z,17.60
2022-08-27T23:45:57.847Z,17.60
2022-08-27T23:51:02.876Z,17.60
2022-08-27T23:56:09.182Z,17.50
